Time;durP1;ratioP1;P1;durP2;ratioP2;P2;SDS_P1;SDS_P2;PMS_P1;PMS_P2;Temp;Humidity;BMP_temperature;BMP_pressure;BME280_temperature;BME280_humidity;BME280_pressure;Samples;Min_cycle;Max_cycle;Signal;HPM_P1;HPM_P2
2021/12/22 00:02:28;;;;;;;44.43;24.40;;;;;;;;;;5039797;28;20182;-70
2021/12/22 00:04:54;;;;;;;48.97;24.43;;;;;;;;;;5040638;28;20208;-70
2021/12/22 00:07:19;;;;;;;38.40;22.07;;;;;;;;;;5039613;28;20233;-71
2021/12/22 00:09:44;;;;;;;39.67;22.83;;;;;;;;;;5039916;28;20186;-70
2021/12/22 00:12:10;;;;;;;46.17;23.30;;;;;;;;;;5040094;28;21509;-70
2021/12/22 00:14:35;;;;;;;41.93;24.20;;;;;;;;;;5036935;28;21627;-71
2021/12/22 00:17:01;;;;;;;37.00;22.77;;;;;;;;;;5041734;28;20181;-70
2021/12/22 00:19:26;;;;;;;42.67;23.03;;;;;;;;;;5041189;28;20191;-71
2021/12/22 00:21:51;;;;;;;40.13;22.37;;;;;;;;;;5057226;28;20705;-70
2021/12/22 00:24:16;;;;;;;37.47;21.97;;;;;;;;;;5060179;28;20197;-70
2021/12/22 00:26:41;;;;;;;42.37;21.60;;;;;;;;;;5067612;28;20192;-69
2021/12/22 00:29:08;;;;;;;45.50;24.03;;;;;;;;;;5050328;28;20567;-70
2021/12/22 00:31:43;;;;;;;37.30;23.37;;;;;;;;;;5051712;28;20173;-70
2021/12/22 00:34:16;;;;;;;48.63;22.73;;;;;;;;;;5052740;28;20253;-70
2021/12/22 00:36:42;;;;;;;38.80;22.07;;;;;;;;;;5052696;28;20259;-70
2021/12/22 00:39:07;;;;;;;41.00;22.30;;;;;;;;;;5057731;28;20185;-70
2021/12/22 00:41:33;;;;;;;46.00;22.63;;;;;;;;;;5055725;28;20184;-70
2021/12/22 00:43:58;;;;;;;41.20;22.67;;;;;;;;;;5067592;28;20638;-70
2021/12/22 00:46:23;;;;;;;40.27;22.90;;;;;;;;;;5063612;28;20208;-69
2021/12/22 00:48:49;;;;;;;45.40;24.67;;;;;;;;;;5055454;28;20717;-70
2021/12/22 00:51:14;;;;;;;37.73;21.97;;;;;;;;;;5048559;28;20177;-70
2021/12/22 00:53:39;;;;;;;37.53;22.40;;;;;;;;;;5053828;28;20204;-68
2021/12/22 00:56:05;;;;;;;43.90;24.07;;;;;;;;;;5074332;22;20253;-72
2021/12/22 00:58:30;;;;;;;43.70;22.43;;;;;;;;;;5031258;28;20189;-73
2021/12/22 01:00:55;;;;;;;41.73;23.57;;;;;;;;;;5031230;28;20182;-73
2021/12/22 01:03:21;;;;;;;39.97;22.43;;;;;;;;;;5021229;28;20554;-73
2021/12/22 01:05:46;;;;;;;44.27;23.53;;;;;;;;;;5015798;28;20271;-71
2021/12/22 01:08:12;;;;;;;46.03;23.53;;;;;;;;;;4995249;28;20524;-73
2021/12/22 01:10:37;;;;;;;46.67;24.47;;;;;;;;;;4999371;28;20309;-71
2021/12/22 01:13:03;;;;;;;49.00;24.20;;;;;;;;;;5015527;28;20213;-74
2021/12/22 01:15:29;;;;;;;45.03;24.33;;;;;;;;;;4999402;28;20213;-74
2021/12/22 01:18:06;;;;;;;47.73;24.43;;;;;;;;;;5021609;28;20505;-73
2021/12/22 01:20:49;;;;;;;44.73;23.10;;;;;;;;;;5024972;28;20181;-73
2021/12/22 01:23:15;;;;;;;45.37;24.10;;;;;;;;;;5031470;28;20182;-73
2021/12/22 01:25:43;;;;;;;41.40;23.83;;;;;;;;;;5038916;28;20640;-73
2021/12/22 01:28:09;;;;;;;46.93;23.73;;;;;;;;;;5037950;28;20190;-75
2021/12/22 01:30:36;;;;;;;45.90;24.07;;;;;;;;;;5045047;28;20193;-73
2021/12/22 01:33:01;;;;;;;42.53;23.23;;;;;;;;;;5032222;28;20714;-72
2021/12/22 01:35:32;;;;;;;43.43;23.10;;;;;;;;;;5029215;28;20284;-73
2021/12/22 01:37:58;;;;;;;38.53;20.57;;;;;;;;;;5032463;28;20597;-72
2021/12/22 01:40:23;;;;;;;37.37;22.07;;;;;;;;;;5033540;28;20231;-72
2021/12/22 01:42:49;;;;;;;39.60;21.40;;;;;;;;;;5040527;28;20219;-72
2021/12/22 01:50:45;;;;;;;41.57;22.97;;;;;;;;;;5029849;28;20269;-72
2021/12/22 01:53:23;;;;;;;41.77;23.10;;;;;;;;;;5035906;28;20228;-72
2021/12/22 01:56:00;;;;;;;48.37;23.40;;;;;;;;;;5027662;28;20705;-72
2021/12/22 01:58:32;;;;;;;45.70;23.73;;;;;;;;;;5037040;28;20182;-72
2021/12/22 02:00:57;;;;;;;43.50;23.67;;;;;;;;;;5034564;28;20178;-73
2021/12/22 02:03:22;;;;;;;50.17;24.77;;;;;;;;;;5032766;28;20181;-73
2021/12/22 02:05:47;;;;;;;43.73;22.97;;;;;;;;;;5030871;28;20211;-72
2021/12/22 02:08:12;;;;;;;42.57;22.90;;;;;;;;;;5031264;28;20205;-72
2021/12/22 02:10:46;;;;;;;45.87;22.53;;;;;;;;;;5038432;28;20182;-72
2021/12/22 02:13:16;;;;;;;45.60;22.27;;;;;;;;;;5036828;28;20212;-73
2021/12/22 02:15:41;;;;;;;44.77;23.63;;;;;;;;;;5039732;28;20193;-72
2021/12/22 02:18:07;;;;;;;40.67;22.53;;;;;;;;;;5040050;28;20653;-73
2021/12/22 02:20:32;;;;;;;43.90;23.97;;;;;;;;;;5029204;28;20660;-73
2021/12/22 02:22:57;;;;;;;40.17;21.33;;;;;;;;;;5029978;28;20176;-72
2021/12/22 02:25:32;;;;;;;38.10;21.57;;;;;;;;;;5040328;28;20198;-73
2021/12/22 02:27:57;;;;;;;35.00;20.43;;;;;;;;;;5037677;28;20673;-72
2021/12/22 02:30:24;;;;;;;36.40;20.50;;;;;;;;;;5047099;28;20223;-73
2021/12/22 02:35:40;;;;;;;36.40;20.93;;;;;;;;;;5036165;28;20706;-73
2021/12/22 02:38:12;;;;;;;45.83;21.60;;;;;;;;;;5028414;28;20223;-73
2021/12/22 02:40:38;;;;;;;38.03;20.60;;;;;;;;;;5038008;28;20205;-73
2021/12/22 02:43:05;;;;;;;34.83;20.73;;;;;;;;;;5034571;28;20263;-72
2021/12/22 02:45:31;;;;;;;44.20;21.80;;;;;;;;;;5043649;28;20286;-72
2021/12/22 02:47:57;;;;;;;42.93;21.87;;;;;;;;;;5036328;28;20651;-73
2021/12/22 02:50:22;;;;;;;40.57;22.13;;;;;;;;;;5034115;28;20189;-73
2021/12/22 02:55:15;;;;;;;36.53;20.57;;;;;;;;;;5048135;28;20189;-73
2021/12/22 02:57:45;;;;;;;39.90;20.47;;;;;;;;;;5048669;28;20174;-73
2021/12/22 03:05:29;;;;;;;41.57;20.13;;;;;;;;;;5030438;28;20702;-73
2021/12/22 03:07:54;;;;;;;31.43;18.63;;;;;;;;;;5029340;28;20194;-72
2021/12/22 03:10:19;;;;;;;32.17;20.03;;;;;;;;;;5029725;28;20182;-73
2021/12/22 03:12:47;;;;;;;37.83;18.97;;;;;;;;;;5033604;28;20201;-72
2021/12/22 03:15:12;;;;;;;35.17;19.23;;;;;;;;;;5028545;28;20257;-73
2021/12/22 03:17:38;;;;;;;39.63;19.23;;;;;;;;;;5037474;28;20179;-72
2021/12/22 03:20:05;;;;;;;34.30;17.97;;;;;;;;;;5031026;28;20221;-72
2021/12/22 03:22:30;;;;;;;38.70;20.17;;;;;;;;;;5036034;28;20186;-73
2021/12/22 03:24:55;;;;;;;35.73;19.00;;;;;;;;;;5012811;28;20190;-73
2021/12/22 03:27:22;;;;;;;34.97;19.17;;;;;;;;;;5031968;28;20188;-73
2021/12/22 03:29:47;;;;;;;36.20;18.57;;;;;;;;;;5021820;28;20521;-73
2021/12/22 03:32:12;;;;;;;36.10;19.47;;;;;;;;;;5029299;28;20413;-72
2021/12/22 03:34:38;;;;;;;36.77;20.17;;;;;;;;;;5035999;28;20553;-73
2021/12/22 03:37:04;;;;;;;34.33;18.10;;;;;;;;;;5030516;28;20315;-73
2021/12/22 03:39:29;;;;;;;41.03;21.17;;;;;;;;;;5029697;28;20698;-73
2021/12/22 03:41:54;;;;;;;41.27;20.00;;;;;;;;;;5025350;28;20170;-72
2021/12/22 03:44:20;;;;;;;29.73;17.83;;;;;;;;;;5044760;28;20189;-73
2021/12/22 03:46:45;;;;;;;37.80;20.53;;;;;;;;;;5039535;28;20773;-73
2021/12/22 03:49:12;;;;;;;45.07;19.03;;;;;;;;;;5044803;28;20188;-73
2021/12/22 03:51:38;;;;;;;37.50;19.10;;;;;;;;;;5039753;28;20663;-73
2021/12/22 03:54:06;;;;;;;38.13;19.07;;;;;;;;;;5033762;28;20181;-73
2021/12/22 03:56:32;;;;;;;34.80;18.33;;;;;;;;;;5034741;28;20237;-73
2021/12/22 03:58:57;;;;;;;38.53;19.70;;;;;;;;;;5031636;28;20206;-72
2021/12/22 04:01:22;;;;;;;36.80;18.90;;;;;;;;;;5036730;28;20601;-73
2021/12/22 04:03:51;;;;;;;34.60;18.67;;;;;;;;;;5033478;28;20754;-73
2021/12/22 04:06:16;;;;;;;35.90;18.57;;;;;;;;;;5028436;28;20684;-73
2021/12/22 04:08:41;;;;;;;42.30;17.93;;;;;;;;;;5033130;28;20182;-73
2021/12/22 04:11:07;;;;;;;39.93;18.57;;;;;;;;;;5038082;28;20181;-73
2021/12/22 04:13:32;;;;;;;35.90;17.73;;;;;;;;;;5033082;28;20670;-72
2021/12/22 04:15:57;;;;;;;40.23;18.90;;;;;;;;;;5042087;28;20193;-73
2021/12/22 04:18:22;;;;;;;42.17;18.77;;;;;;;;;;5031095;28;20186;-73
2021/12/22 04:20:47;;;;;;;36.40;18.60;;;;;;;;;;5018801;28;20208;-72
2021/12/22 04:23:13;;;;;;;36.27;19.00;;;;;;;;;;5032383;28;20178;-73
2021/12/22 04:25:38;;;;;;;33.27;17.70;;;;;;;;;;5038177;28;20240;-73
2021/12/22 04:28:08;;;;;;;35.00;18.57;;;;;;;;;;5030701;28;20205;-73
2021/12/22 04:30:35;;;;;;;37.37;18.33;;;;;;;;;;5031308;28;20170;-73
2021/12/22 04:33:01;;;;;;;39.77;18.03;;;;;;;;;;5035495;28;20730;-73
2021/12/22 04:35:26;;;;;;;30.43;17.73;;;;;;;;;;5033630;28;20674;-71
2021/12/22 04:37:51;;;;;;;35.37;18.63;;;;;;;;;;5039261;28;20183;-72
2021/12/22 04:40:17;;;;;;;32.13;17.33;;;;;;;;;;5036826;28;20182;-71
2021/12/22 04:42:43;;;;;;;34.63;19.50;;;;;;;;;;5035454;28;20177;-71
2021/12/22 04:45:08;;;;;;;35.80;18.40;;;;;;;;;;5033601;28;20185;-71
2021/12/22 04:47:34;;;;;;;32.50;18.17;;;;;;;;;;5045484;28;20173;-72
2021/12/22 04:50:00;;;;;;;34.03;18.37;;;;;;;;;;5045331;28;20268;-71
2021/12/22 04:52:31;;;;;;;36.23;19.03;;;;;;;;;;5037124;28;20193;-71
2021/12/22 04:55:04;;;;;;;36.57;19.03;;;;;;;;;;5026669;28;20181;-73
2021/12/22 04:57:30;;;;;;;39.30;18.23;;;;;;;;;;5041786;28;20190;-71
2021/12/22 04:59:55;;;;;;;39.97;19.27;;;;;;;;;;5035489;28;20269;-71
2021/12/22 05:02:20;;;;;;;36.90;19.77;;;;;;;;;;5037983;28;20639;-71
2021/12/22 05:04:45;;;;;;;31.23;17.40;;;;;;;;;;5036930;28;20178;-72
2021/12/22 05:07:10;;;;;;;41.53;18.43;;;;;;;;;;5037053;28;20214;-71
2021/12/22 05:09:36;;;;;;;37.10;17.87;;;;;;;;;;5039922;28;20178;-71
2021/12/22 05:12:01;;;;;;;34.17;17.27;;;;;;;;;;5037734;28;20201;-71
2021/12/22 05:14:26;;;;;;;40.40;19.63;;;;;;;;;;5042725;28;20264;-71
2021/12/22 05:16:58;;;;;;;39.27;20.10;;;;;;;;;;5037799;28;20193;-71
2021/12/22 05:19:23;;;;;;;36.83;19.43;;;;;;;;;;5035797;28;20182;-71
2021/12/22 05:21:48;;;;;;;38.13;18.40;;;;;;;;;;5026201;28;20175;-72
2021/12/22 05:24:13;;;;;;;37.90;19.83;;;;;;;;;;5033285;28;20274;-73
2021/12/22 05:26:39;;;;;;;37.33;19.30;;;;;;;;;;5042493;28;20272;-72
2021/12/22 05:29:04;;;;;;;35.40;17.97;;;;;;;;;;5043558;28;20265;-71
2021/12/22 05:31:29;;;;;;;33.23;18.33;;;;;;;;;;5039631;28;20174;-73
2021/12/22 05:33:55;;;;;;;30.30;16.57;;;;;;;;;;5036635;28;20225;-73
2021/12/22 05:36:20;;;;;;;32.87;17.90;;;;;;;;;;5033440;28;20585;-73
2021/12/22 05:38:46;;;;;;;32.40;18.00;;;;;;;;;;5031289;28;20549;-73
2021/12/22 05:41:11;;;;;;;35.00;17.57;;;;;;;;;;5033649;28;20191;-73
2021/12/22 05:43:36;;;;;;;36.70;19.53;;;;;;;;;;5040373;28;20189;-73
2021/12/22 05:46:01;;;;;;;40.67;18.77;;;;;;;;;;5048582;28;20228;-72
2021/12/22 05:48:27;;;;;;;34.63;18.33;;;;;;;;;;5059615;28;20204;-73
2021/12/22 05:50:57;;;;;;;32.40;18.17;;;;;;;;;;5041576;28;20220;-73
2021/12/22 05:53:23;;;;;;;31.83;16.93;;;;;;;;;;5039497;28;20206;-73
2021/12/22 05:55:48;;;;;;;40.40;18.83;;;;;;;;;;5037552;28;20678;-73
2021/12/22 05:58:13;;;;;;;34.73;18.20;;;;;;;;;;5038736;28;20642;-73
2021/12/22 06:00:38;;;;;;;37.20;18.73;;;;;;;;;;5025191;28;20179;-73
2021/12/22 06:03:03;;;;;;;36.73;18.23;;;;;;;;;;5026848;28;20178;-72
2021/12/22 06:05:29;;;;;;;31.93;18.67;;;;;;;;;;5048982;28;20213;-73
2021/12/22 06:07:54;;;;;;;37.80;17.97;;;;;;;;;;5028183;28;20652;-73
2021/12/22 06:10:19;;;;;;;34.30;17.97;;;;;;;;;;5025811;28;20191;-73
2021/12/22 06:12:44;;;;;;;37.10;17.57;;;;;;;;;;5040626;28;20303;-72
2021/12/22 06:15:09;;;;;;;38.93;17.07;;;;;;;;;;5031705;28;20174;-72
2021/12/22 06:17:34;;;;;;;37.43;17.80;;;;;;;;;;5037752;28;20181;-73
2021/12/22 06:20:00;;;;;;;29.63;15.33;;;;;;;;;;5040001;28;20602;-73
2021/12/22 06:22:27;;;;;;;42.03;18.70;;;;;;;;;;5040467;28;20185;-72
2021/12/22 06:24:52;;;;;;;34.17;16.80;;;;;;;;;;5043336;28;20242;-72
2021/12/22 06:27:17;;;;;;;34.87;18.20;;;;;;;;;;5033528;28;20182;-72
2021/12/22 06:29:42;;;;;;;37.47;18.10;;;;;;;;;;5039542;28;20184;-72
2021/12/22 06:32:08;;;;;;;38.53;18.13;;;;;;;;;;5029882;28;20198;-73
2021/12/22 06:34:33;;;;;;;34.27;17.10;;;;;;;;;;5037043;28;20257;-72
2021/12/22 06:36:58;;;;;;;29.23;17.43;;;;;;;;;;5034231;28;20296;-72
2021/12/22 06:39:23;;;;;;;31.50;16.50;;;;;;;;;;5031181;28;20174;-72
2021/12/22 06:41:49;;;;;;;35.53;17.20;;;;;;;;;;5031121;28;20166;-72
2021/12/22 06:44:15;;;;;;;31.17;16.70;;;;;;;;;;5038584;28;20671;-73
2021/12/22 06:46:41;;;;;;;32.43;18.27;;;;;;;;;;5041993;28;20193;-72
2021/12/22 06:49:07;;;;;;;31.10;17.20;;;;;;;;;;5032847;28;20183;-72
2021/12/22 06:51:32;;;;;;;32.77;17.47;;;;;;;;;;5046274;28;20166;-73
2021/12/22 06:53:57;;;;;;;37.30;17.47;;;;;;;;;;5037638;28;20576;-73
2021/12/22 06:56:22;;;;;;;33.17;18.73;;;;;;;;;;5044018;22;20236;-74
2021/12/22 06:58:47;;;;;;;36.27;17.93;;;;;;;;;;5036020;28;20181;-73
2021/12/22 07:01:17;;;;;;;35.20;17.90;;;;;;;;;;5029976;28;20185;-73
2021/12/22 07:03:43;;;;;;;36.23;17.97;;;;;;;;;;5021836;28;20179;-73
2021/12/22 07:06:08;;;;;;;31.77;16.07;;;;;;;;;;5026723;28;20745;-73
2021/12/22 07:08:33;;;;;;;39.17;19.97;;;;;;;;;;5030806;28;20292;-73
2021/12/22 07:10:58;;;;;;;37.00;18.23;;;;;;;;;;5030512;28;20648;-73
2021/12/22 07:13:24;;;;;;;39.13;18.17;;;;;;;;;;5036576;28;20263;-73
2021/12/22 07:15:49;;;;;;;34.43;17.10;;;;;;;;;;5035893;28;20197;-73
2021/12/22 07:18:14;;;;;;;35.30;19.00;;;;;;;;;;5030260;28;20236;-73
2021/12/22 07:20:40;;;;;;;32.63;17.20;;;;;;;;;;5033622;28;20171;-74
2021/12/22 07:23:05;;;;;;;41.13;19.03;;;;;;;;;;5039324;28;20185;-74
2021/12/22 07:25:30;;;;;;;42.03;19.10;;;;;;;;;;5040710;28;20208;-74
2021/12/22 07:27:56;;;;;;;36.33;18.57;;;;;;;;;;5038963;28;20261;-74
2021/12/22 07:30:21;;;;;;;40.23;18.70;;;;;;;;;;5048204;28;20667;-74
2021/12/22 07:32:46;;;;;;;36.77;18.30;;;;;;;;;;5049779;28;20253;-75
2021/12/22 07:35:23;;;;;;;34.83;17.23;;;;;;;;;;5045889;28;20173;-74
2021/12/22 07:38:01;;;;;;;40.23;18.17;;;;;;;;;;5034331;28;20192;-75
2021/12/22 07:40:27;;;;;;;35.90;17.83;;;;;;;;;;5032379;28;20188;-74
2021/12/22 07:42:52;;;;;;;33.83;17.33;;;;;;;;;;5039356;28;20570;-73
2021/12/22 07:45:17;;;;;;;36.97;17.77;;;;;;;;;;5044177;28;20186;-75
2021/12/22 07:47:42;;;;;;;34.13;18.27;;;;;;;;;;5047559;28;20271;-73
2021/12/22 07:50:08;;;;;;;37.23;18.47;;;;;;;;;;5039659;28;20277;-75
2021/12/22 07:52:34;;;;;;;33.20;17.13;;;;;;;;;;5043957;28;20286;-74
2021/12/22 07:54:59;;;;;;;36.00;19.03;;;;;;;;;;5037268;28;20181;-75
2021/12/22 07:57:25;;;;;;;35.23;18.40;;;;;;;;;;5029217;28;20232;-73
2021/12/22 07:59:50;;;;;;;33.83;18.13;;;;;;;;;;5031883;28;20269;-74
2021/12/22 08:02:15;;;;;;;35.40;17.20;;;;;;;;;;5031336;28;20892;-74
2021/12/22 08:04:40;;;;;;;39.10;17.87;;;;;;;;;;5032838;28;20269;-74
2021/12/22 08:07:06;;;;;;;35.50;19.93;;;;;;;;;;5034682;28;20213;-74
2021/12/22 08:09:31;;;;;;;34.60;16.97;;;;;;;;;;5030889;28;20231;-74
2021/12/22 08:12:04;;;;;;;37.93;18.97;;;;;;;;;;5033449;28;20280;-75
2021/12/22 08:14:29;;;;;;;35.43;18.20;;;;;;;;;;5025173;28;20695;-74
2021/12/22 08:16:54;;;;;;;30.97;18.37;;;;;;;;;;5032576;28;20318;-74
2021/12/22 08:19:19;;;;;;;31.73;19.17;;;;;;;;;;5033409;28;20638;-74
2021/12/22 08:21:45;;;;;;;38.73;18.97;;;;;;;;;;5035362;28;20178;-75
2021/12/22 08:24:10;;;;;;;34.40;18.43;;;;;;;;;;5034189;28;20642;-74
2021/12/22 08:26:35;;;;;;;31.93;17.77;;;;;;;;;;5034144;28;20250;-74
2021/12/22 08:29:01;;;;;;;35.30;18.77;;;;;;;;;;5031319;28;20182;-74
2021/12/22 08:31:26;;;;;;;38.27;19.07;;;;;;;;;;5031525;28;20225;-74
2021/12/22 08:33:54;;;;;;;33.50;17.83;;;;;;;;;;5034003;28;21342;-73
2021/12/22 08:39:04;;;;;;;35.10;19.43;;;;;;;;;;5035880;28;20185;-74
2021/12/22 08:41:31;;;;;;;36.57;19.00;;;;;;;;;;5021221;28;20182;-74
2021/12/22 08:43:57;;;;;;;35.57;19.40;;;;;;;;;;5034670;28;20194;-74
2021/12/22 08:46:22;;;;;;;35.13;19.43;;;;;;;;;;5033421;28;20579;-74
2021/12/22 08:48:48;;;;;;;33.57;19.70;;;;;;;;;;5034359;28;20190;-74
2021/12/22 08:51:13;;;;;;;40.13;19.43;;;;;;;;;;5035112;28;20236;-75
2021/12/22 08:53:38;;;;;;;42.37;20.73;;;;;;;;;;5034872;28;20300;-75
2021/12/22 08:56:04;;;;;;;40.37;19.97;;;;;;;;;;5032919;28;20230;-75
2021/12/22 08:58:29;;;;;;;37.23;19.30;;;;;;;;;;5035121;28;20174;-75
2021/12/22 09:00:55;;;;;;;34.83;20.10;;;;;;;;;;5033661;28;20170;-75
2021/12/22 09:03:20;;;;;;;38.63;21.03;;;;;;;;;;5037695;28;20185;-75
2021/12/22 09:05:45;;;;;;;36.07;19.97;;;;;;;;;;5021686;28;20201;-73
2021/12/22 09:08:10;;;;;;;37.13;19.33;;;;;;;;;;5030120;28;20198;-73
2021/12/22 09:10:35;;;;;;;36.83;20.50;;;;;;;;;;5034311;28;20682;-73
2021/12/22 09:13:01;;;;;;;37.10;20.93;;;;;;;;;;5034461;28;20206;-74
2021/12/22 09:15:26;;;;;;;35.87;19.50;;;;;;;;;;5012695;28;21281;-74
2021/12/22 09:17:51;;;;;;;37.50;21.57;;;;;;;;;;5025958;28;20171;-74
2021/12/22 09:20:16;;;;;;;38.57;21.57;;;;;;;;;;5032719;28;20177;-74
2021/12/22 09:22:41;;;;;;;42.07;22.70;;;;;;;;;;5027610;28;20274;-74
2021/12/22 09:25:07;;;;;;;43.13;22.40;;;;;;;;;;5019361;28;20186;-74
2021/12/22 09:27:32;;;;;;;40.47;23.90;;;;;;;;;;5033457;28;20695;-74
2021/12/22 09:29:58;;;;;;;45.80;22.90;;;;;;;;;;5036382;28;20182;-74
2021/12/22 09:32:23;;;;;;;38.90;22.43;;;;;;;;;;5037560;28;20194;-74
2021/12/22 09:34:51;;;;;;;39.70;22.10;;;;;;;;;;5022416;28;20329;-74
2021/12/22 09:37:17;;;;;;;40.80;23.23;;;;;;;;;;5038153;28;20726;-75
2021/12/22 09:39:42;;;;;;;31.10;20.73;;;;;;;;;;5032324;28;20262;-75
2021/12/22 09:42:08;;;;;;;39.40;20.83;;;;;;;;;;5027751;28;20206;-75
2021/12/22 09:44:42;;;;;;;35.57;21.10;;;;;;;;;;5019685;28;20218;-74
2021/12/22 09:47:08;;;;;;;35.93;20.03;;;;;;;;;;5027303;28;20575;-75
2021/12/22 09:52:21;;;;;;;29.50;19.30;;;;;;;;;;5029807;28;20190;-74
2021/12/22 09:54:48;;;;;;;28.57;18.87;;;;;;;;;;5019875;28;20726;-74
2021/12/22 09:57:15;;;;;;;32.40;19.97;;;;;;;;;;5037438;28;20691;-75
2021/12/22 09:59:40;;;;;;;33.60;19.03;;;;;;;;;;5027887;28;20233;-75
2021/12/22 10:02:05;;;;;;;35.47;18.90;;;;;;;;;;5034611;28;20177;-75
2021/12/22 10:04:31;;;;;;;32.83;20.03;;;;;;;;;;5035853;28;20174;-75
2021/12/22 10:06:56;;;;;;;28.53;18.20;;;;;;;;;;5037174;28;20222;-76
2021/12/22 10:09:22;;;;;;;26.67;18.80;;;;;;;;;;5034279;28;20775;-76
2021/12/22 10:11:47;;;;;;;30.20;19.50;;;;;;;;;;5026074;28;20289;-75
2021/12/22 10:14:23;;;;;;;29.20;18.67;;;;;;;;;;5036097;28;20201;-76
2021/12/22 10:16:51;;;;;;;27.20;18.07;;;;;;;;;;5023388;28;20197;-76
2021/12/22 10:19:16;;;;;;;32.77;19.17;;;;;;;;;;5028871;28;20218;-75
2021/12/22 10:21:50;;;;;;;29.83;20.23;;;;;;;;;;5037485;28;20194;-74
2021/12/22 10:24:15;;;;;;;26.77;18.07;;;;;;;;;;5034139;28;20665;-76
2021/12/22 10:26:41;;;;;;;28.60;19.87;;;;;;;;;;5041684;28;20271;-75
2021/12/22 10:29:07;;;;;;;26.57;16.60;;;;;;;;;;5036664;28;20185;-76
2021/12/22 10:31:44;;;;;;;23.23;15.67;;;;;;;;;;5033214;28;20190;-75
2021/12/22 10:34:16;;;;;;;28.37;16.70;;;;;;;;;;5022228;28;20215;-75
2021/12/22 10:36:49;;;;;;;23.47;16.37;;;;;;;;;;5031350;28;20208;-75
2021/12/22 10:39:34;;;;;;;23.83;16.23;;;;;;;;;;5026438;28;20205;-76
2021/12/22 10:42:04;;;;;;;22.70;14.63;;;;;;;;;;5035433;28;20178;-75
2021/12/22 10:44:36;;;;;;;20.53;14.67;;;;;;;;;;5033314;28;20170;-75
2021/12/22 10:47:32;;;;;;;21.73;14.63;;;;;;;;;;5035744;28;20197;-75
2021/12/22 10:50:02;;;;;;;17.60;14.03;;;;;;;;;;5030725;28;20179;-75
2021/12/22 10:52:27;;;;;;;21.63;13.77;;;;;;;;;;5024715;28;20324;-76
2021/12/22 10:55:06;;;;;;;18.40;11.87;;;;;;;;;;5031636;28;20712;-75
2021/12/22 10:57:34;;;;;;;18.83;12.00;;;;;;;;;;5037610;28;20210;-75
2021/12/22 10:59:59;;;;;;;18.23;12.67;;;;;;;;;;5032030;28;20204;-75
2021/12/22 11:02:31;;;;;;;20.07;12.67;;;;;;;;;;5034543;28;20722;-75
2021/12/22 11:04:56;;;;;;;18.03;12.57;;;;;;;;;;5036985;28;20210;-77
2021/12/22 11:07:27;;;;;;;18.37;12.93;;;;;;;;;;5034957;28;20237;-76
2021/12/22 11:09:53;;;;;;;19.17;12.63;;;;;;;;;;5019651;28;20181;-75
2021/12/22 11:12:33;;;;;;;18.00;11.50;;;;;;;;;;5033219;28;20210;-72
2021/12/22 11:14:58;;;;;;;16.83;12.13;;;;;;;;;;5037242;28;20193;-75
2021/12/22 11:17:23;;;;;;;22.00;13.03;;;;;;;;;;5036962;28;20217;-73
2021/12/22 11:19:53;;;;;;;16.93;12.43;;;;;;;;;;5037799;28;20178;-74
2021/12/22 11:22:23;;;;;;;19.07;12.50;;;;;;;;;;5040322;28;20186;-74
2021/12/22 11:24:50;;;;;;;17.57;11.13;;;;;;;;;;5035094;28;20205;-73
2021/12/22 11:27:18;;;;;;;18.40;12.27;;;;;;;;;;5029033;28;20245;-74
2021/12/22 11:29:54;;;;;;;21.87;12.77;;;;;;;;;;5033694;28;20210;-74
2021/12/22 11:32:21;;;;;;;15.00;11.13;;;;;;;;;;5032677;28;20282;-74
2021/12/22 11:34:54;;;;;;;17.43;12.53;;;;;;;;;;5031418;28;20237;-74
2021/12/22 11:37:20;;;;;;;16.23;10.73;;;;;;;;;;5030527;28;20298;-73
2021/12/22 11:39:46;;;;;;;17.37;12.00;;;;;;;;;;5028193;28;20705;-74
2021/12/22 11:42:13;;;;;;;19.73;11.00;;;;;;;;;;5034211;28;20257;-74
2021/12/22 11:44:39;;;;;;;14.50;11.03;;;;;;;;;;5034358;28;20648;-74
2021/12/22 11:47:05;;;;;;;16.13;12.83;;;;;;;;;;5039499;28;20273;-74
2021/12/22 11:49:34;;;;;;;15.40;11.83;;;;;;;;;;5032840;28;20178;-73
2021/12/22 11:52:00;;;;;;;14.47;11.27;;;;;;;;;;5039156;28;20209;-76
2021/12/22 11:54:27;;;;;;;21.43;12.70;;;;;;;;;;5028550;28;20202;-76
2021/12/22 11:56:54;;;;;;;15.30;10.80;;;;;;;;;;5025757;28;20261;-73
2021/12/22 11:59:28;;;;;;;15.50;11.10;;;;;;;;;;5047874;28;20178;-73
2021/12/22 12:02:12;;;;;;;18.90;11.90;;;;;;;;;;5041934;28;20195;-76
2021/12/22 12:04:37;;;;;;;18.10;11.53;;;;;;;;;;5031780;28;20178;-76
2021/12/22 12:07:03;;;;;;;18.20;11.63;;;;;;;;;;5032014;28;20198;-75
2021/12/22 12:09:29;;;;;;;16.07;10.80;;;;;;;;;;5033704;28;20173;-73
2021/12/22 12:11:56;;;;;;;16.57;11.10;;;;;;;;;;5039512;28;20185;-74
2021/12/22 12:23:14;;;;;;;17.60;12.43;;;;;;;;;;5034808;28;20193;-73
2021/12/22 12:25:40;;;;;;;14.87;10.97;;;;;;;;;;5037141;28;20201;-73
2021/12/22 12:28:15;;;;;;;15.37;11.43;;;;;;;;;;5023593;28;20576;-74
2021/12/22 12:30:48;;;;;;;15.80;11.77;;;;;;;;;;5040240;28;20561;-74
2021/12/22 12:33:20;;;;;;;15.77;11.20;;;;;;;;;;5030216;28;20248;-74
2021/12/22 12:36:16;;;;;;;16.83;11.47;;;;;;;;;;5029889;28;20230;-74
2021/12/22 12:38:43;;;;;;;15.17;11.27;;;;;;;;;;5024939;28;20194;-74
2021/12/22 12:41:11;;;;;;;16.63;11.70;;;;;;;;;;5033253;28;20178;-74
2021/12/22 12:48:45;;;;;;;15.33;11.03;;;;;;;;;;5033795;28;20602;-74
2021/12/22 12:51:11;;;;;;;17.73;11.60;;;;;;;;;;5034840;28;20190;-74
2021/12/22 12:53:40;;;;;;;13.32;11.10;;;;;;;;;;5032131;28;20260;-74
2021/12/22 12:56:07;;;;;;;17.27;11.53;;;;;;;;;;5040078;28;20202;-75
2021/12/22 12:58:33;;;;;;;16.40;11.20;;;;;;;;;;5029922;28;20178;-75
2021/12/22 13:00:58;;;;;;;20.67;12.30;;;;;;;;;;5041673;28;20336;-75
2021/12/22 13:03:23;;;;;;;14.43;10.43;;;;;;;;;;5029410;28;20174;-76
2021/12/22 13:05:48;;;;;;;23.13;12.37;;;;;;;;;;5021753;28;20195;-76
2021/12/22 13:08:14;;;;;;;21.07;12.23;;;;;;;;;;5032716;28;20208;-78
2021/12/22 13:10:41;;;;;;;15.00;11.93;;;;;;;;;;5029365;28;20187;-76
2021/12/22 13:13:15;;;;;;;16.57;10.90;;;;;;;;;;5028872;28;20340;-75
2021/12/22 13:15:49;;;;;;;14.70;10.93;;;;;;;;;;5028542;28;20213;-75
2021/12/22 13:18:20;;;;;;;14.57;11.07;;;;;;;;;;5044449;28;20213;-74
2021/12/22 13:20:46;;;;;;;22.07;11.30;;;;;;;;;;5020215;28;20166;-74
2021/12/22 13:23:13;;;;;;;16.27;11.50;;;;;;;;;;5038967;28;20717;-76
2021/12/22 13:25:39;;;;;;;18.67;11.67;;;;;;;;;;5027858;28;20210;-75
2021/12/22 13:28:04;;;;;;;15.10;11.63;;;;;;;;;;5023880;28;20187;-74
2021/12/22 13:30:37;;;;;;;15.20;11.30;;;;;;;;;;5026615;28;20652;-77
2021/12/22 13:33:04;;;;;;;16.23;10.77;;;;;;;;;;5033973;28;20264;-76
2021/12/22 13:35:44;;;;;;;15.87;11.90;;;;;;;;;;5040748;28;20197;-76
2021/12/22 13:38:35;;;;;;;14.37;11.27;;;;;;;;;;5037792;28;20189;-76
2021/12/22 13:41:01;;;;;;;16.50;11.93;;;;;;;;;;5015057;28;21382;-76
2021/12/22 13:43:36;;;;;;;20.17;11.63;;;;;;;;;;5035939;28;20174;-74
2021/12/22 13:46:10;;;;;;;14.97;9.77;;;;;;;;;;5038590;28;20213;-77
2021/12/22 13:48:47;;;;;;;16.50;11.73;;;;;;;;;;5050595;28;20274;-75
2021/12/22 13:51:15;;;;;;;17.70;11.57;;;;;;;;;;5028822;28;20174;-75
2021/12/22 13:53:41;;;;;;;16.57;10.87;;;;;;;;;;5038063;28;20237;-75
2021/12/22 13:56:07;;;;;;;13.40;10.77;;;;;;;;;;5037666;28;20228;-75
2021/12/22 13:58:34;;;;;;;15.10;10.43;;;;;;;;;;5031098;28;20647;-75
2021/12/22 14:01:09;;;;;;;12.77;10.47;;;;;;;;;;5037248;28;20183;-75
2021/12/22 14:03:35;;;;;;;19.47;11.60;;;;;;;;;;5027852;28;20266;-77
2021/12/22 14:06:08;;;;;;;17.23;10.43;;;;;;;;;;5034890;28;20612;-75
2021/12/22 14:08:33;;;;;;;16.10;10.87;;;;;;;;;;5033290;28;20260;-75
2021/12/22 14:10:59;;;;;;;17.63;10.53;;;;;;;;;;5013320;28;20196;-76
2021/12/22 14:13:30;;;;;;;13.53;11.07;;;;;;;;;;5013192;28;20209;-72
2021/12/22 14:15:55;;;;;;;16.43;9.73;;;;;;;;;;5015739;28;20680;-74
2021/12/22 14:18:32;;;;;;;17.77;11.70;;;;;;;;;;5017551;28;20269;-73
2021/12/22 14:20:57;;;;;;;18.83;12.03;;;;;;;;;;5014899;28;20178;-73
2021/12/22 14:23:23;;;;;;;20.37;11.10;;;;;;;;;;5016660;28;20193;-74
2021/12/22 14:25:51;;;;;;;19.77;11.83;;;;;;;;;;5009426;28;20237;-74
2021/12/22 14:28:25;;;;;;;17.40;11.87;;;;;;;;;;5013386;28;20187;-74
2021/12/22 14:30:50;;;;;;;19.87;11.20;;;;;;;;;;5014204;28;20570;-73
2021/12/22 14:33:25;;;;;;;17.40;11.03;;;;;;;;;;5017703;28;20202;-73
2021/12/22 14:35:55;;;;;;;15.70;10.57;;;;;;;;;;5024797;28;20212;-73
2021/12/22 14:38:21;;;;;;;19.30;10.33;;;;;;;;;;5041504;28;20178;-73
2021/12/22 14:41:05;;;;;;;14.27;10.70;;;;;;;;;;5034047;28;20236;-74
2021/12/22 14:43:33;;;;;;;14.73;10.03;;;;;;;;;;5032801;28;20272;-73
2021/12/22 14:45:58;;;;;;;12.97;10.27;;;;;;;;;;5031810;28;20206;-73
2021/12/22 14:48:30;;;;;;;13.27;9.73;;;;;;;;;;5029571;28;20613;-74
2021/12/22 14:51:01;;;;;;;14.97;9.87;;;;;;;;;;5018971;28;20186;-73
2021/12/22 14:53:37;;;;;;;12.83;9.07;;;;;;;;;;5016920;28;21850;-74